• Join FlightAware (Why Join?)
  • Login
  • US Flag 
08:35AM EST


 

Airport Tracker/Info


-or-


 

Live Flight TrackerFlight Track Log ✈ CHQ6036 ✈ 11-May-2013 ✈ KCHS - KDTW

Flight Track Log - Related Links

Times and Time Zones

All times are in EDT time to prevent confusion due to time zone crossing. See the CHQ6036 flight status page for this flight to view local times or setup timezone preferences in your user account.

Time Position Orientation Groundspeed Altitude Reporting Facility
EDT Latitude Longitude Course Direction KTS MPH feet Rate Location/Type
06:02PM 32.8183 -80.0031 352° North 206 237 3,800  Level Jacksonville Center
06:03PM 32.8700 -79.9842 17° North 141 162 5,300 1,620 Climbing Jacksonville Center
06:04PM 32.9333 -80.0192 335° Northwest 120 138 7,100 1,860 Climbing Jacksonville Center
06:05PM 33.3810 -80.2738 337° Northwest  Level FlightAware Approximate
06:05PM 32.9992 -80.0592 333° Northwest 203 234 9,100  Level Jacksonville Center
06:06PM 33.4804 -80.3235 337° Northwest  Level FlightAware Approximate
06:06PM 33.0689 -80.0967 336° Northwest 247 284 10,700  Level Jacksonville Center
06:07PM 33.5831 -80.3583 352° North  Level FlightAware Approximate
06:07PM 33.1444 -80.1264 342° North 289 333 11,800  Level Jacksonville Center
06:08PM 33.2422 -80.1136 North 308 354 13,000 1,200 Climbing Jacksonville Center
06:09PM 33.3261 -80.1208 356° North 323 372 14,200 1,140 Climbing Jacksonville Center
06:10PM 33.4203 -80.1403 350° North 328 377 15,300 900 Climbing Jacksonville Center
06:11PM 33.5125 -80.1622 349° North 334 384 16,100 960 Climbing Jacksonville Center
06:12PM 33.6092 -80.1817 350° North 334 384 17,300 1,260 Climbing Jacksonville Center
06:13PM 33.7033 -80.2014 350° North 334 384 18,700 1,440 Climbing Jacksonville Center
06:14PM 33.7936 -80.2211 350° North 334 384 20,200 1,500 Climbing Jacksonville Center
06:15PM 33.8836 -80.2408 350° North 334 384 21,700 1,380 Climbing Jacksonville Center
06:16PM 33.9697 -80.2608 349° North 329 379 23,000 1,140 Climbing Jacksonville Center
06:17PM 34.0597 -80.2806 350° North 329 379 24,000 960 Climbing Jacksonville Center
06:18PM 34.1500 -80.3006 350° North 324 373 25,000 960 Climbing Jacksonville Center
06:19PM 34.2422 -80.3203 350° North 329 379 26,000 780 Climbing Jacksonville Center
06:20PM 34.3383 -80.3378 351° North 339 390 26,600 720 Climbing Jacksonville Center
06:21PM 34.4347 -80.3625 348° North 345 397 27,500 900 Climbing Jacksonville Center
06:22PM 34.5333 -80.3822 351° North 350 403 28,500 1,020 Climbing Jacksonville Center
06:24PM 34.7450 -80.4317 349° North 340 391 30,700 1,020 Climbing Atlanta Center
06:25PM 34.8417 -80.4528 350° North 346 398 31,700 840 Climbing Atlanta Center
06:27PM 35.0160 -80.4868 351° North  Level FlightAware Approximate
06:28PM 35.1064 -80.5097 351° North 335 386 34,200  Level Atlanta Center
06:29PM 35.1944 -80.5289 350° North 335 386 34,600 480 Climbing Atlanta Center
06:30PM 35.2869 -80.5478 351° North 330 380 35,200 540 Climbing Atlanta Center
06:31PM 35.3750 -80.5697 349° North 330 380 35,700 360 Climbing Atlanta Center
06:32PM 35.4653 -80.5886 350° North 330 380 36,000 120 Climbing Atlanta Center
06:33PM 35.5661 -80.6100 350° North 335 386 36,000  Level Atlanta Center
06:34PM 35.6625 -80.6317 350° North 340 391 36,000  Level Atlanta Center
06:35PM 35.7656 -80.6553 349° North 354 407 36,000  Level Atlanta Center
06:36PM 35.8706 -80.6817 348° North 372 428 36,000  Level Atlanta Center
06:37PM 35.9775 -80.7056 350° North 381 438 36,000  Level Atlanta Center
06:38PM 36.0908 -80.7317 349° North 398 458 36,000  Level Atlanta Center
06:39PM 36.2000 -80.7531 351° North 404 465 36,000  Level Atlanta Center
06:40PM 36.3092 -80.7794 349° North 404 465 36,000  Level Atlanta Center
06:41PM 36.4181 -80.8033 350° North 394 453 36,000  Level Atlanta Center
06:42PM 36.5294 -80.8300 349° North 394 453 36,000  Level Atlanta Center
06:44PM 36.7475 -80.8825 349° North 404 465 36,000  Level Indianapolis Center
06:45PM 36.8564 -80.9086 349° North 406 467 36,000  Level Indianapolis Center
06:46PM 36.9883 -80.9392 350° North 411 473 36,000  Level Indianapolis Center
06:47PM 37.0992 -80.9658 349° North 413 475 36,000  Level Indianapolis Center
06:48PM 37.2092 -80.9933 349° North 413 475 36,000  Level Indianapolis Center
06:49PM 37.3203 -81.0186 350° North 414 476 36,000  Level Indianapolis Center
06:50PM 37.4528 -81.0517 349° North 414 476 36,000  Level Indianapolis Center
06:51PM 37.5650 -81.0800 349° North 418 481 36,000  Level Indianapolis Center
06:52PM 37.6750 -81.1086 348° North 414 476 36,000  Level Indianapolis Center
06:53PM 37.7869 -81.1381 348° North 420 483 36,000  Level Indianapolis Center
06:54PM 37.8997 -81.1692 348° North 421 484 36,000  Level Indianapolis Center
06:55PM 38.0361 -81.2056 348° North 418 481 36,000  Level Indianapolis Center
06:56PM 38.1492 -81.2397 347° North 415 478 36,000  Level Indianapolis Center
06:57PM 38.2350 -81.3125 326° Northwest 373 429 36,000  Level Indianapolis Center
06:58PM 38.3431 -81.3556 343° North 405 466 36,000  Level Indianapolis Center
06:59PM 38.4525 -81.3947 344° North 409 471 36,000  Level Indianapolis Center
07:00PM 38.5633 -81.4347 344° North 413 475 36,000  Level Indianapolis Center
07:01PM 38.6819 -81.4775 344° North 409 471 36,000  Level Indianapolis Center
07:02PM 38.7950 -81.5183 344° North 414 476 36,000  Level Indianapolis Center
07:03PM 38.9136 -81.5617 344° North 423 487 36,000  Level Indianapolis Center
07:04PM 39.0264 -81.6036 344° North 423 487 36,000  Level Indianapolis Center
07:05PM 39.1403 -81.6450 344° North 424 488 36,000  Level Indianapolis Center
07:06PM 39.2550 -81.6864 344° North 429 494 36,000 -60 Level Indianapolis Center
07:07PM 39.3683 -81.7278 344° North 423 487 35,900 -420 Descending Indianapolis Center
07:08PM 39.4836 -81.7719 344° North 430 495 35,200 -480 Descending Indianapolis Center
07:10PM 39.5989 -81.8181 343° North 434 499 35,000 -240 Descending Indianapolis Center
07:11PM 39.7183 -81.8619 344° North 433 498 34,800 -540 Descending Indianapolis Center
07:12PM 39.8422 -81.8858 352° North 445 512 34,000 -420 Descending Indianapolis Center
07:13PM 39.9656 -81.9078 352° North 445 512 34,000 -180 Level Indianapolis Center
07:14PM 40.1089 -81.9333 352° North 443 510 33,700 -660 Descending Indianapolis Center
07:15PM 40.2325 -81.9547 352° North 443 510 32,700 -1,080 Descending Indianapolis Center
07:16PM 40.3431 -81.9747 352° North 441 507 31,600 -1,200 Descending Indianapolis Center
07:16PM 40.3858 -81.9814 353° North 449 517 31,200 -1,200 Descending Cleveland Center
07:17PM 40.5106 -82.0086 351° North 449 517 30,100 -600 Descending Cleveland Center
07:18PM 40.6225 -82.0686 338° Northwest 437 503 30,000 -60 Descending Cleveland Center
07:19PM 40.7319 -82.1394 334° Northwest 432 497 30,000  Level Cleveland Center
07:20PM 40.8292 -82.2022 334° Northwest 437 503 30,000 -660 Level Cleveland Center
07:21PM 40.9406 -82.2736 334° Northwest 443 510 28,700 -1,740 Descending Cleveland Center
07:22PM 41.0500 -82.3425 335° Northwest 438 504 26,600 -2,340 Descending Cleveland Center
07:23PM 41.1614 -82.4117 335° Northwest 438 504 24,100 -2,460 Descending Cleveland Center
07:24PM 41.2792 -82.4897 334° Northwest 438 504 21,700 -2,400 Descending Cleveland Center
07:25PM 41.3803 -82.5536 335° Northwest 422 486 19,300 -2,460 Descending Cleveland Center
07:25PM 41.4275 -82.5853 333° Northwest 415 478 18,200 -2,400 Descending Cleveland Center
07:26PM 41.4833 -82.6203 335° Northwest 412 474 16,900 -2,400 Descending Cleveland Center
07:27PM 41.5758 -82.6844 333° Northwest 388 447 14,600 -2,340 Descending Cleveland Center
07:28PM 41.6625 -82.7400 334° Northwest 374 430 12,600 -1,380 Descending Cleveland Center
07:29PM 41.7486 -82.8069 330° Northwest 347 399 12,000 -300 Descending Cleveland Center
07:30PM 41.8422 -82.9189 318° Northwest 351 404 12,000  Level Cleveland Center
07:31PM 41.8992 -82.9878 318° Northwest 353 406 12,000 -120 Level Cleveland Center
07:32PM 41.9883 -83.0219 344° North 330 380 11,800 -600 Descending Cleveland Center
07:33PM 42.0900 -83.0428 351° North 293 337 10,800 -1,200 Descending Cleveland Center
07:34PM 42.1500 -83.0592 349° North 299 344 9,400 -1,620 Descending Cleveland Center
07:35PM 42.2206 -83.0758 350° North 273 314 7,800 -1,440 Descending Cleveland Center
07:35PM 42.2411 -83.0822 347° North 259 298 7,600 -1,680 Descending Cleveland Center
07:36PM 42.2947 -83.1094 339° North 214 246 5,900 -2,100 Descending Cleveland Center
07:37PM 42.3269 -83.1669 307° West 191 220 3,800 -1,560 Descending Cleveland Center
07:38PM 42.3464 -83.2242 295° West 196 226 3,100 -600 Descending Cleveland Center
07:39PM 42.2972 -83.2753 218° Southwest 192 221 2,600 -720 Descending Cleveland Center
07:40PM 42.2569 -83.3072 210° Southwest 155 178 1,600 -900 Descending Cleveland Center
07:41PM 42.2231 -83.3311 208° Southwest 150 173 900 -780 Descending Cleveland Center